N46BE KRDU-KORF
Flight info
| Callsign | N46BE |
|---|---|
| Flight time | 0h 37m |
| Altitude | 19000 |
| Route | HURIC4 HURIC NUTZE KOHLS1 |
| Aircraft | B350/L-SBGRW/S |
Departure
| Time | 2026-04-29 02:24 |
|---|---|
| Airport | Raleigh-Durham International Airport (KRDU) |
Arrival
| Time | 2026-04-29 03:01 |
|---|---|
| Airport | Norfolk International Airport (KORF) |
| Time | Latitude | Longitude | Altitude | Speed | Heading |
|---|---|---|---|---|---|
| 2026-04-29 02:02 | 35.87927 | -78.78420 | 419 ft | 0 kts | 225° |
| 2026-04-29 02:21 | 35.87926 | -78.78421 | 419 ft | 1 kts | 221° |
| 2026-04-29 02:21 | 35.87877 | -78.78420 | 421 ft | 8 kts | 173° |
| 2026-04-29 02:21 | 35.87844 | -78.78393 | 421 ft | 10 kts | 131° |
| 2026-04-29 02:21 | 35.87875 | -78.78291 | 421 ft | 13 kts | 46° |
| 2026-04-29 02:22 | 35.87952 | -78.78194 | 420 ft | 18 kts | 45° |
| 2026-04-29 02:22 | 35.88009 | -78.78112 | 418 ft | 4 kts | 84° |
| 2026-04-29 02:22 | 35.88002 | -78.78077 | 418 ft | 0 kts | 120° |
| 2026-04-29 02:22 | 35.88000 | -78.78073 | 418 ft | 0 kts | 120° |
| 2026-04-29 02:23 | 35.87987 | -78.78050 | 419 ft | 7 kts | 125° |
| 2026-04-29 02:23 | 35.87938 | -78.77981 | 419 ft | 13 kts | 140° |
| 2026-04-29 02:23 | 35.87880 | -78.77986 | 420 ft | 14 kts | 220° |
| 2026-04-29 02:23 | 35.87444 | -78.78526 | 427 ft | 119 kts | 226° |
| 2026-04-29 02:24 | 35.87003 | -78.79050 | 577 ft | 140 kts | 224° |
| 2026-04-29 02:24 | 35.85762 | -78.80170 | 1042 ft | 177 kts | 201° |
| 2026-04-29 02:24 | 35.84937 | -78.80537 | 1527 ft | 177 kts | 200° |
| 2026-04-29 02:25 | 35.82204 | -78.81722 | 3149 ft | 174 kts | 200° |
| 2026-04-29 02:25 | 35.80965 | -78.81887 | 3705 ft | 180 kts | 166° |
| 2026-04-29 02:25 | 35.80217 | -78.81370 | 4056 ft | 184 kts | 135° |
| 2026-04-29 02:25 | 35.79704 | -78.79393 | 4710 ft | 187 kts | 76° |
| 2026-04-29 02:26 | 35.80327 | -78.78011 | 5228 ft | 184 kts | 52° |
| 2026-04-29 02:26 | 35.80745 | -78.76497 | 5771 ft | 189 kts | 74° |
| 2026-04-29 02:26 | 35.81063 | -78.74887 | 6386 ft | 193 kts | 70° |
| 2026-04-29 02:26 | 35.81308 | -78.73830 | 6856 ft | 193 kts | 69° |
| 2026-04-29 02:27 | 35.81822 | -78.71745 | 7804 ft | 193 kts | 68° |
| 2026-04-29 02:27 | 35.82088 | -78.70690 | 8260 ft | 193 kts | 67° |
| 2026-04-29 02:27 | 35.82626 | -78.68573 | 9084 ft | 194 kts | 67° |
| 2026-04-29 02:27 | 35.83031 | -78.66983 | 9708 ft | 196 kts | 68° |
| 2026-04-29 02:28 | 35.83304 | -78.65910 | 10111 ft | 197 kts | 67° |
| 2026-04-29 02:28 | 35.83874 | -78.63670 | 10872 ft | 200 kts | 68° |
| 2026-04-29 02:28 | 35.84310 | -78.61954 | 11408 ft | 203 kts | 68° |
| 2026-04-29 02:28 | 35.84739 | -78.60263 | 11920 ft | 205 kts | 68° |
| 2026-04-29 02:29 | 35.85173 | -78.58555 | 12416 ft | 208 kts | 68° |
| 2026-04-29 02:29 | 35.85606 | -78.56847 | 12867 ft | 210 kts | 68° |
| 2026-04-29 02:29 | 35.85902 | -78.55680 | 13175 ft | 212 kts | 69° |
| 2026-04-29 02:29 | 35.86387 | -78.53960 | 13624 ft | 211 kts | 58° |
| 2026-04-29 02:30 | 35.87359 | -78.51837 | 14261 ft | 215 kts | 54° |
| 2026-04-29 02:30 | 35.87853 | -78.50758 | 14669 ft | 216 kts | 54° |
| 2026-04-29 02:30 | 35.88584 | -78.49155 | 15337 ft | 213 kts | 54° |
| 2026-04-29 02:30 | 35.89540 | -78.47056 | 16180 ft | 208 kts | 52° |
| 2026-04-29 02:31 | 35.90013 | -78.46018 | 16556 ft | 207 kts | 52° |
| 2026-04-29 02:31 | 35.90723 | -78.44460 | 17108 ft | 207 kts | 51° |
| 2026-04-29 02:31 | 35.91434 | -78.42899 | 17638 ft | 207 kts | 51° |
| 2026-04-29 02:31 | 35.92380 | -78.40818 | 18313 ft | 207 kts | 51° |
| 2026-04-29 02:32 | 35.92856 | -78.39774 | 18608 ft | 209 kts | 50° |
| 2026-04-29 02:32 | 35.93845 | -78.37601 | 19065 ft | 220 kts | 51° |
| 2026-04-29 02:32 | 35.94613 | -78.35908 | 19091 ft | 229 kts | 51° |
| 2026-04-29 02:32 | 35.95415 | -78.34141 | 19106 ft | 238 kts | 52° |
| 2026-04-29 02:33 | 35.96260 | -78.32276 | 19102 ft | 246 kts | 52° |
| 2026-04-29 02:33 | 35.96838 | -78.31001 | 19093 ft | 251 kts | 52° |
| 2026-04-29 02:33 | 35.98078 | -78.28263 | 19102 ft | 260 kts | 53° |
| 2026-04-29 02:33 | 35.99002 | -78.26223 | 19102 ft | 266 kts | 52° |
| 2026-04-29 02:34 | 35.99913 | -78.24209 | 19096 ft | 271 kts | 53° |
| 2026-04-29 02:34 | 36.00853 | -78.22130 | 19104 ft | 276 kts | 53° |
| 2026-04-29 02:34 | 36.01827 | -78.19981 | 19103 ft | 280 kts | 53° |
| 2026-04-29 02:34 | 36.02794 | -78.17844 | 19099 ft | 284 kts | 53° |
| 2026-04-29 02:35 | 36.03445 | -78.16402 | 19104 ft | 286 kts | 53° |
| 2026-04-29 02:35 | 36.04420 | -78.14243 | 19093 ft | 289 kts | 53° |
| 2026-04-29 02:35 | 36.05732 | -78.11333 | 19089 ft | 290 kts | 53° |
| 2026-04-29 02:35 | 36.06729 | -78.09119 | 19090 ft | 291 kts | 53° |
| 2026-04-29 02:36 | 36.07760 | -78.06828 | 19092 ft | 292 kts | 53° |
| 2026-04-29 02:36 | 36.08438 | -78.05322 | 19095 ft | 292 kts | 53° |
| 2026-04-29 02:36 | 36.09459 | -78.03053 | 19084 ft | 293 kts | 54° |
| 2026-04-29 02:36 | 36.10787 | -78.00097 | 19089 ft | 294 kts | 54° |
| 2026-04-29 02:37 | 36.11469 | -77.98578 | 19095 ft | 294 kts | 54° |
| 2026-04-29 02:37 | 36.12800 | -77.95612 | 19093 ft | 295 kts | 53° |
| 2026-04-29 02:37 | 36.13802 | -77.93377 | 19095 ft | 296 kts | 53° |
| 2026-04-29 02:37 | 36.14801 | -77.91149 | 19093 ft | 297 kts | 53° |
| 2026-04-29 02:38 | 36.15477 | -77.89641 | 19094 ft | 297 kts | 54° |
| 2026-04-29 02:38 | 36.16830 | -77.86616 | 19092 ft | 297 kts | 53° |
| 2026-04-29 02:38 | 36.17868 | -77.84294 | 19094 ft | 298 kts | 53° |
| 2026-04-29 02:38 | 36.18541 | -77.82789 | 19100 ft | 298 kts | 53° |
| 2026-04-29 02:39 | 36.19976 | -77.79577 | 19097 ft | 299 kts | 54° |
| 2026-04-29 02:39 | 36.20678 | -77.78006 | 19104 ft | 299 kts | 54° |
| 2026-04-29 02:39 | 36.22057 | -77.74913 | 19104 ft | 300 kts | 54° |
| 2026-04-29 02:39 | 36.23145 | -77.72469 | 19100 ft | 300 kts | 53° |
| 2026-04-29 02:40 | 36.23872 | -77.70840 | 19104 ft | 300 kts | 54° |
| 2026-04-29 02:40 | 36.24902 | -77.68524 | 19104 ft | 300 kts | 53° |
| 2026-04-29 02:40 | 36.26339 | -77.65293 | 19104 ft | 300 kts | 53° |
| 2026-04-29 02:40 | 36.27364 | -77.62987 | 19104 ft | 300 kts | 53° |
| 2026-04-29 02:41 | 36.28368 | -77.60725 | 19106 ft | 300 kts | 54° |
| 2026-04-29 02:41 | 36.29388 | -77.58427 | 19101 ft | 300 kts | 54° |
| 2026-04-29 02:41 | 36.30088 | -77.56848 | 19097 ft | 300 kts | 54° |
| 2026-04-29 02:41 | 36.31459 | -77.53754 | 19104 ft | 300 kts | 53° |
| 2026-04-29 02:42 | 36.32484 | -77.51441 | 19104 ft | 300 kts | 53° |
| 2026-04-29 02:42 | 36.33505 | -77.49135 | 19094 ft | 300 kts | 54° |
| 2026-04-29 02:42 | 36.34566 | -77.46733 | 19096 ft | 300 kts | 53° |
| 2026-04-29 02:42 | 36.35281 | -77.45115 | 19107 ft | 299 kts | 53° |
| 2026-04-29 02:43 | 36.36696 | -77.41914 | 18710 ft | 304 kts | 54° |
| 2026-04-29 02:43 | 36.37728 | -77.39573 | 18360 ft | 305 kts | 54° |
| 2026-04-29 02:43 | 36.38760 | -77.37232 | 18011 ft | 304 kts | 54° |
| 2026-04-29 02:43 | 36.39822 | -77.34821 | 17642 ft | 303 kts | 55° |
| 2026-04-29 02:44 | 36.40510 | -77.33257 | 17390 ft | 303 kts | 55° |
| 2026-04-29 02:44 | 36.41908 | -77.30081 | 16896 ft | 302 kts | 56° |
| 2026-04-29 02:44 | 36.43005 | -77.27586 | 16499 ft | 301 kts | 56° |
| 2026-04-29 02:44 | 36.44015 | -77.25286 | 16134 ft | 301 kts | 56° |
| 2026-04-29 02:45 | 36.45056 | -77.22915 | 15763 ft | 300 kts | 56° |
| 2026-04-29 02:45 | 36.46072 | -77.20599 | 15393 ft | 300 kts | 57° |
| 2026-04-29 02:45 | 36.46744 | -77.19068 | 15158 ft | 299 kts | 57° |
| 2026-04-29 02:45 | 36.48071 | -77.16039 | 14677 ft | 299 kts | 57° |
| 2026-04-29 02:46 | 36.49064 | -77.13772 | 14316 ft | 299 kts | 57° |
| 2026-04-29 02:46 | 36.49722 | -77.12267 | 14081 ft | 299 kts | 57° |
| 2026-04-29 02:46 | 36.51038 | -77.09257 | 13608 ft | 299 kts | 58° |
| 2026-04-29 02:46 | 36.52034 | -77.06977 | 13248 ft | 298 kts | 57° |
| 2026-04-29 02:47 | 36.53027 | -77.04703 | 12892 ft | 297 kts | 58° |
| 2026-04-29 02:47 | 36.53999 | -77.02474 | 12536 ft | 296 kts | 58° |
| 2026-04-29 02:47 | 36.54666 | -77.00946 | 12291 ft | 295 kts | 57° |
| 2026-04-29 02:47 | 36.55964 | -76.97967 | 11804 ft | 293 kts | 58° |
| 2026-04-29 02:48 | 36.56937 | -76.95731 | 11436 ft | 292 kts | 57° |
| 2026-04-29 02:48 | 36.57894 | -76.93518 | 11068 ft | 290 kts | 57° |
| 2026-04-29 02:48 | 36.58531 | -76.92049 | 10989 ft | 283 kts | 57° |
| 2026-04-29 02:48 | 36.59752 | -76.89243 | 10946 ft | 268 kts | 57° |
| 2026-04-29 02:49 | 36.60351 | -76.87872 | 10963 ft | 269 kts | 57° |
| 2026-04-29 02:49 | 36.61263 | -76.85779 | 10972 ft | 272 kts | 57° |
| 2026-04-29 02:49 | 36.62475 | -76.82987 | 10976 ft | 275 kts | 57° |
| 2026-04-29 02:49 | 36.63085 | -76.81582 | 10951 ft | 276 kts | 57° |
| 2026-04-29 02:50 | 36.64319 | -76.78730 | 10439 ft | 277 kts | 57° |
| 2026-04-29 02:50 | 36.65346 | -76.76721 | 10069 ft | 273 kts | 50° |
| 2026-04-29 02:50 | 36.66105 | -76.75455 | 9823 ft | 268 kts | 49° |
| 2026-04-29 02:50 | 36.67207 | -76.73620 | 9453 ft | 263 kts | 49° |
| 2026-04-29 02:51 | 36.68667 | -76.71182 | 8962 ft | 258 kts | 49° |
| 2026-04-29 02:51 | 36.69726 | -76.69411 | 8602 ft | 254 kts | 49° |
| 2026-04-29 02:51 | 36.70429 | -76.68227 | 8350 ft | 253 kts | 49° |
| 2026-04-29 02:51 | 36.71834 | -76.65864 | 7859 ft | 249 kts | 49° |
| 2026-04-29 02:52 | 36.72894 | -76.64092 | 7479 ft | 247 kts | 49° |
| 2026-04-29 02:52 | 36.73922 | -76.62376 | 7099 ft | 245 kts | 49° |
| 2026-04-29 02:52 | 36.74599 | -76.61238 | 7001 ft | 237 kts | 49° |
| 2026-04-29 02:52 | 36.75909 | -76.59037 | 6996 ft | 243 kts | 49° |
| 2026-04-29 02:53 | 36.76981 | -76.57250 | 6991 ft | 251 kts | 49° |
| 2026-04-29 02:53 | 36.78051 | -76.55480 | 6981 ft | 256 kts | 49° |
| 2026-04-29 02:53 | 36.79133 | -76.53699 | 6979 ft | 260 kts | 49° |
| 2026-04-29 02:53 | 36.80253 | -76.51848 | 6980 ft | 263 kts | 49° |
| 2026-04-29 02:54 | 36.81351 | -76.50044 | 6977 ft | 264 kts | 49° |
| 2026-04-29 02:54 | 36.82084 | -76.48829 | 6969 ft | 259 kts | 49° |
| 2026-04-29 02:54 | 36.83177 | -76.47027 | 6969 ft | 257 kts | 49° |
| 2026-04-29 02:54 | 36.84885 | -76.44868 | 6523 ft | 264 kts | 34° |
| 2026-04-29 02:55 | 36.85822 | -76.43874 | 6307 ft | 267 kts | 39° |
| 2026-04-29 02:55 | 36.87613 | -76.41863 | 5766 ft | 254 kts | 39° |
| 2026-04-29 02:55 | 36.88482 | -76.40890 | 5510 ft | 252 kts | 39° |
| 2026-04-29 02:55 | 36.89784 | -76.39444 | 5116 ft | 250 kts | 39° |
| 2026-04-29 02:56 | 36.91521 | -76.37528 | 4594 ft | 249 kts | 39° |
| 2026-04-29 02:56 | 36.92818 | -76.36114 | 4215 ft | 248 kts | 39° |
| 2026-04-29 02:56 | 36.94121 | -76.34682 | 3829 ft | 248 kts | 39° |
| 2026-04-29 02:56 | 36.95006 | -76.33727 | 3572 ft | 249 kts | 39° |
| 2026-04-29 02:57 | 36.96747 | -76.31834 | 3068 ft | 250 kts | 40° |
| 2026-04-29 02:57 | 36.98044 | -76.30454 | 2983 ft | 239 kts | 39° |
| 2026-04-29 02:57 | 36.99293 | -76.29106 | 2954 ft | 230 kts | 44° |
| 2026-04-29 02:57 | 37.00192 | -76.27391 | 2795 ft | 228 kts | 71° |
| 2026-04-29 02:58 | 37.00358 | -76.25413 | 2936 ft | 217 kts | 97° |
| 2026-04-29 02:58 | 36.99980 | -76.23583 | 2893 ft | 219 kts | 110° |
| 2026-04-29 02:58 | 36.99362 | -76.21821 | 2817 ft | 221 kts | 121° |
| 2026-04-29 02:58 | 36.98464 | -76.20225 | 2701 ft | 224 kts | 131° |
| 2026-04-29 02:59 | 36.97750 | -76.19237 | 2459 ft | 224 kts | 136° |
| 2026-04-29 02:59 | 36.96527 | -76.18018 | 2038 ft | 219 kts | 151° |
| 2026-04-29 02:59 | 36.94767 | -76.16933 | 1621 ft | 197 kts | 156° |
| 2026-04-29 02:59 | 36.93968 | -76.16489 | 1590 ft | 170 kts | 157° |
| 2026-04-29 03:00 | 36.92950 | -76.16215 | 1335 ft | 135 kts | 205° |
| 2026-04-29 03:00 | 36.92270 | -76.16993 | 830 ft | 135 kts | 230° |
| 2026-04-29 03:00 | 36.91356 | -76.18147 | 239 ft | 125 kts | 217° |
| 2026-04-29 03:00 | 36.90903 | -76.18594 | 125 ft | 121 kts | 217° |
| 2026-04-29 03:01 | 36.90094 | -76.19375 | 20 ft | 88 kts | 217° |
| 2026-04-29 03:01 | 36.89796 | -76.19661 | 23 ft | 25 kts | 220° |
| 2026-04-29 03:01 | 36.89733 | -76.19723 | 24 ft | 12 kts | 218° |
| 2026-04-29 03:01 | 36.89497 | -76.19856 | 24 ft | 27 kts | 177° |
| 2026-04-29 03:02 | 36.89435 | -76.19853 | 24 ft | 0 kts | 179° |
| 2026-04-29 03:02 | 36.89383 | -76.19853 | 24 ft | 11 kts | 180° |
| 2026-04-29 03:02 | 36.89231 | -76.19851 | 24 ft | 18 kts | 180° |
| 2026-04-29 03:03 | 36.89129 | -76.19849 | 24 ft | 21 kts | 179° |
| 2026-04-29 03:03 | 36.88937 | -76.19846 | 23 ft | 7 kts | 178° |
| 2026-04-29 03:03 | 36.88899 | -76.19870 | 23 ft | 11 kts | 235° |
| 2026-04-29 03:03 | 36.88839 | -76.20029 | 23 ft | 15 kts | 250° |
| 2026-04-29 03:04 | 36.88804 | -76.20085 | 23 ft | 11 kts | 183° |
| 2026-04-29 03:04 | 36.88696 | -76.20074 | 22 ft | 15 kts | 241° |
| 2026-04-29 03:04 | 36.88640 | -76.20120 | 22 ft | 14 kts | 61° |
| 2026-04-29 03:04 | 36.88658 | -76.20095 | 22 ft | 2 kts | 38° |
| 2026-04-29 03:05 | 36.88715 | -76.20085 | 22 ft | 11 kts | 318° |
| 2026-04-29 03:05 | 36.88726 | -76.20100 | 22 ft | 0 kts | 303° |